Time;durP1;ratioP1;P1;durP2;ratioP2;P2;SDS_P1;SDS_P2;PMS_P1;PMS_P2;Temp;Humidity;BMP_temperature;BMP_pressure;BME280_temperature;BME280_humidity;BME280_pressure;Samples;Min_cycle;Max_cycle;Signal;HPM_P1;HPM_P2
2023/01/13 00:01:08;;;;;;;4.18;1.20;;;;;;;13.19;100.00;100446.72;5006500;28;20053;-84
2023/01/13 00:03:37;;;;;;;3.90;1.25;;;;;;;13.15;100.00;100438.03;5009847;28;20162;-84
2023/01/13 00:06:10;;;;;;;3.40;1.10;;;;;;;13.13;100.00;100444.91;5006157;28;20034;-84
2023/01/13 00:08:38;;;;;;;4.53;1.50;;;;;;;13.09;100.00;100439.66;5006119;28;20109;-81
2023/01/13 00:11:07;;;;;;;2.65;0.85;;;;;;;13.05;100.00;100451.72;5007922;28;20057;-85
2023/01/13 00:13:37;;;;;;;3.58;0.90;;;;;;;12.98;100.00;100435.16;5002956;28;20089;-78
2023/01/13 00:16:08;;;;;;;3.60;1.20;;;;;;;12.95;100.00;100437.72;5005433;28;20484;-84
2023/01/13 00:18:36;;;;;;;1.73;1.10;;;;;;;12.95;100.00;100436.88;5006037;28;20050;-83
2023/01/13 00:21:08;;;;;;;2.28;1.15;;;;;;;12.90;100.00;100430.75;5005395;28;20455;-86
2023/01/13 00:23:38;;;;;;;2.60;1.10;;;;;;;12.87;100.00;100425.47;5007519;28;20068;-88
2023/01/13 00:26:08;;;;;;;8.80;3.17;;;;;;;12.83;100.00;100421.97;5007504;28;20053;-86
2023/01/13 00:28:37;;;;;;;4.95;1.45;;;;;;;12.79;100.00;100415.84;5004810;28;20412;-84
2023/01/13 00:31:07;;;;;;;2.72;0.90;;;;;;;12.76;100.00;100408.03;5007833;28;20137;-83
2023/01/13 00:33:36;;;;;;;1.67;1.00;;;;;;;12.74;100.00;100401.94;5005458;28;20046;-83
2023/01/13 00:36:06;;;;;;;2.60;1.08;;;;;;;12.70;100.00;100401.88;5007024;28;20122;-83
2023/01/13 00:38:38;;;;;;;2.75;1.17;;;;;;;12.61;100.00;100387.03;5007870;28;20057;-87
2023/01/13 00:41:08;;;;;;;3.28;1.00;;;;;;;12.59;100.00;100383.53;5005223;28;20265;-82
2023/01/13 00:43:37;;;;;;;1.63;0.95;;;;;;;12.61;100.00;100381.84;5006810;28;20077;-82
2023/01/13 00:46:07;;;;;;;1.83;1.00;;;;;;;12.56;100.00;100373.97;5011260;28;20774;-84
2023/01/13 00:48:37;;;;;;;3.00;1.20;;;;;;;12.54;100.00;100365.28;5006026;28;20049;-81
2023/01/13 00:51:08;;;;;;;3.70;1.23;;;;;;;12.53;100.00;100367.88;5008316;28;20108;-82
2023/01/13 00:53:42;;;;;;;2.15;1.13;;;;;;;12.51;100.00;100361.78;5004261;28;20628;-79
2023/01/13 00:56:14;;;;;;;4.75;1.10;;;;;;;12.49;100.00;100355.72;5005024;28;20092;-83
2023/01/13 00:58:45;;;;;;;3.22;1.40;;;;;;;12.48;100.00;100360.00;5003571;28;20132;-83
2023/01/13 01:01:15;;;;;;;3.70;1.70;;;;;;;12.47;100.00;100362.59;4997887;28;20050;-88
2023/01/13 01:03:44;;;;;;;3.08;1.10;;;;;;;12.45;100.00;100353.91;5004774;28;20054;-86
2023/01/13 01:06:14;;;;;;;3.30;1.15;;;;;;;12.43;100.00;100353.88;5006246;28;20058;-85
2023/01/13 01:08:45;;;;;;;1.67;1.00;;;;;;;12.43;100.00;100347.81;5006581;28;20053;-86
2023/01/13 01:11:15;;;;;;;1.95;1.15;;;;;;;12.41;100.00;100336.53;5007300;28;20601;-87
2023/01/13 01:13:44;;;;;;;3.95;1.42;;;;;;;12.40;100.00;100355.56;5009050;28;20057;-85
2023/01/13 01:16:15;;;;;;;2.40;1.13;;;;;;;12.40;100.00;100363.34;5007094;28;20057;-86
2023/01/13 01:18:45;;;;;;;3.28;1.52;;;;;;;12.41;100.00;100359.88;5008370;28;20062;-84
2023/01/13 01:21:16;;;;;;;2.33;1.35;;;;;;;12.40;100.00;100352.97;5011105;28;20112;-84
2023/01/13 01:23:47;;;;;;;1.75;1.10;;;;;;;12.40;100.00;100348.66;5008804;28;20483;-84
2023/01/13 01:26:18;;;;;;;2.75;1.30;;;;;;;12.40;100.00;100358.16;5016074;28;20518;-80
2023/01/13 01:28:47;;;;;;;3.03;1.20;;;;;;;12.40;100.00;100355.56;5009595;28;20050;-86
2023/01/13 01:31:18;;;;;;;4.18;1.65;;;;;;;12.40;100.00;100355.56;5014834;28;20530;-78
2023/01/13 01:33:47;;;;;;;6.63;1.20;;;;;;;12.41;100.00;100349.50;5013601;28;20049;-82
2023/01/13 01:36:19;;;;;;;6.25;1.63;;;;;;;12.42;100.00;100375.50;5012198;28;20073;-87
2023/01/13 01:38:51;;;;;;;4.22;1.40;;;;;;;12.43;100.00;100350.41;5010859;28;20060;-83
2023/01/13 01:41:23;;;;;;;1.85;1.02;;;;;;;12.44;100.00;100346.94;5014075;28;20042;-81
2023/01/13 01:43:58;;;;;;;1.42;1.00;;;;;;;12.45;100.00;100344.41;5014246;28;20058;-88
2023/01/13 01:46:29;;;;;;;3.55;1.50;;;;;;;12.48;100.00;100346.16;5011620;28;20052;-84
2023/01/13 01:49:02;;;;;;;2.20;1.15;;;;;;;12.50;100.00;100352.25;5010147;28;20503;-81
2023/01/13 01:51:38;;;;;;;2.70;0.80;;;;;;;12.50;100.00;100347.91;4998560;28;20054;-80
2023/01/13 01:54:12;;;;;;;2.28;0.90;;;;;;;12.51;100.00;100356.59;5007885;28;20058;-78
2023/01/13 01:56:43;;;;;;;1.38;0.73;;;;;;;12.53;100.00;100368.75;5009751;28;20041;-79
2023/01/13 01:59:13;;;;;;;2.25;1.13;;;;;;;12.55;100.00;100373.94;5009879;28;20057;-83
2023/01/13 02:01:43;;;;;;;1.20;0.70;;;;;;;12.56;100.00;100378.31;5007134;28;20069;-78
2023/01/13 02:04:15;;;;;;;2.35;1.08;;;;;;;12.59;100.00;100373.16;5013191;28;20415;-78
2023/01/13 02:06:45;;;;;;;3.38;1.83;;;;;;;12.61;100.00;100376.66;5009422;28;20500;-77
2023/01/13 02:09:16;;;;;;;5.20;2.13;;;;;;;12.61;100.00;100387.03;5010042;28;20091;-77
2023/01/13 02:14:33;;;;;;;6.68;2.60;;;;;;;12.63;100.00;100400.91;5004439;28;20056;-79
2023/01/13 02:17:16;;;;;;;8.38;2.35;;;;;;;12.64;100.00;100407.81;5014163;28;20107;-87
2023/01/13 02:20:17;;;;;;;5.78;2.72;;;;;;;12.65;100.00;100408.72;5017857;28;20424;-81
2023/01/13 02:27:00;;;;;;;6.97;1.95;;;;;;;12.61;100.00;100409.53;4972862;28;20504;-81
2023/01/13 02:32:48;;;;;;;3.70;1.80;;;;;;;12.55;100.00;100402.50;4993298;28;20057;-80
2023/01/13 02:35:24;;;;;;;4.03;1.63;;;;;;;12.53;100.00;100393.84;4985634;28;20050;-83
2023/01/13 02:37:55;;;;;;;3.72;1.90;;;;;;;12.49;100.00;100384.25;4993196;28;20483;-83
2023/01/13 02:40:28;;;;;;;3.92;1.60;;;;;;;12.45;100.00;100374.66;4990304;28;20528;-85
2023/01/13 02:45:59;;;;;;;2.28;1.40;;;;;;;12.42;100.00;100365.13;4984493;28;20065;-78
2023/01/13 02:48:30;;;;;;;1.88;1.40;;;;;;;12.43;100.00;100373.75;4988778;28;20615;-80
2023/01/13 02:51:05;;;;;;;4.93;2.45;;;;;;;12.42;100.00;100370.31;4992607;28;20049;-80
2023/01/13 02:53:39;;;;;;;7.85;3.58;;;;;;;12.41;100.00;100354.69;4988026;28;20054;-80
2023/01/13 02:56:10;;;;;;;5.82;2.83;;;;;;;12.39;100.00;100341.69;4988709;28;20041;-78
2023/01/13 02:58:42;;;;;;;4.90;2.80;;;;;;;12.34;100.00;100352.00;4988084;28;20113;-81
2023/01/13 03:01:13;;;;;;;4.87;2.00;;;;;;;12.33;100.00;100352.88;4987682;28;20315;-79
2023/01/13 03:03:42;;;;;;;2.53;1.60;;;;;;;12.32;100.00;100275.91;4989661;28;20072;-78
2023/01/13 03:06:33;;;;;;;2.08;0.93;;;;;;;12.29;100.00;100286.22;4990053;28;20054;-80
2023/01/13 03:09:07;;;;;;;1.73;1.23;;;;;;;12.28;100.00;100265.47;4988971;28;20416;-78
2023/01/13 03:11:45;;;;;;;2.45;1.00;;;;;;;12.25;100.00;100263.66;4989891;28;20072;-78
2023/01/13 03:14:29;;;;;;;3.10;1.40;;;;;;;12.23;100.00;100282.66;4986298;28;20043;-82
2023/01/13 03:17:17;;;;;;;1.85;1.10;;;;;;;12.20;100.00;100293.00;4990535;28;20114;-77
2023/01/13 03:19:58;;;;;;;4.60;1.20;;;;;;;12.17;100.00;100300.72;4988088;28;20171;-77
2023/01/13 03:22:35;;;;;;;1.25;0.93;;;;;;;12.11;100.00;100306.69;4979493;28;20054;-78
2023/01/13 03:25:21;;;;;;;2.53;1.02;;;;;;;12.09;100.00;100316.16;4989472;28;20046;-79
2023/01/13 03:27:58;;;;;;;3.05;1.17;;;;;;;12.07;100.00;100326.53;4991203;28;20066;-76
2023/01/13 03:30:34;;;;;;;3.33;0.82;;;;;;;12.07;100.00;100339.47;4998544;28;20085;-78
2023/01/13 03:33:14;;;;;;;2.47;1.10;;;;;;;12.05;100.00;100340.28;5008534;28;20045;-78
2023/01/13 03:35:55;;;;;;;2.22;1.20;;;;;;;11.97;100.00;100341.88;5010127;28;20045;-77
2023/01/13 03:38:40;;;;;;;1.83;0.90;;;;;;;11.87;100.00;100340.84;5011050;28;20068;-77
2023/01/13 03:41:14;;;;;;;2.50;0.80;;;;;;;11.85;100.00;100335.59;5009521;28;20046;-79
2023/01/13 03:46:50;;;;;;;2.58;1.25;;;;;;;11.89;100.00;100352.13;5007880;28;20057;-80
2023/01/13 03:49:37;;;;;;;2.30;1.52;;;;;;;11.91;100.00;100363.38;5005196;28;20066;-81
2023/01/13 03:52:14;;;;;;;5.45;2.58;;;;;;;11.93;100.00;100353.91;5010670;28;20130;-83
2023/01/13 03:54:50;;;;;;;3.60;1.80;;;;;;;11.92;100.00;100378.97;5008467;28;20089;-81
2023/01/13 03:57:27;;;;;;;3.60;1.90;;;;;;;11.95;100.00;100404.94;5010655;28;20076;-82
2023/01/13 04:00:01;;;;;;;4.28;2.42;;;;;;;11.95;100.00;100412.72;5010204;28;20042;-84
2023/01/13 04:02:42;;;;;;;3.30;1.77;;;;;;;11.98;100.00;100416.22;5007541;28;20065;-83
2023/01/13 04:05:15;;;;;;;3.80;1.65;;;;;;;12.00;100.00;100422.31;5009423;28;20046;-83
2023/01/13 04:08:03;;;;;;;5.38;1.77;;;;;;;11.98;100.00;100403.25;5005769;28;20090;-86
2023/01/13 04:10:54;;;;;;;;;;;;;;;;;;;;;
2023/01/13 04:19:07;;;;;;;4.15;2.05;;;;;;;12.03;100.00;100365.34;4991389;28;20057;-87
2023/01/13 04:21:38;;;;;;;3.20;1.92;;;;;;;11.97;100.00;100347.94;5007250;28;20141;-84
2023/01/13 04:24:08;;;;;;;2.63;1.95;;;;;;;12.01;100.00;100334.19;5006867;28;20623;-86
2023/01/13 04:26:37;;;;;;;2.45;1.92;;;;;;;12.00;100.00;100326.38;5012959;28;20046;-86
2023/01/13 04:29:06;;;;;;;4.03;2.28;;;;;;;12.02;100.00;100311.72;5012320;28;20108;-86
2023/01/13 04:31:34;;;;;;;5.35;2.28;;;;;;;12.00;100.00;100313.41;5010703;28;20058;-82
2023/01/13 04:34:03;;;;;;;5.15;2.35;;;;;;;11.99;100.00;100301.31;5011644;28;20050;-86
2023/01/13 04:36:32;;;;;;;3.15;2.05;;;;;;;11.98;100.00;100286.56;5015277;28;20061;-83
2023/01/13 04:39:05;;;;;;;3.67;2.50;;;;;;;11.98;100.00;100273.63;5013266;28;20110;-87
2023/01/13 04:41:56;;;;;;;4.15;2.60;;;;;;;11.98;100.00;100260.66;5006487;28;20041;-84
2023/01/13 04:44:22;;;;;;;3.22;2.00;;;;;;;11.94;100.00;100247.66;5009915;28;20141;-85
2023/01/13 04:46:51;;;;;;;2.95;1.95;;;;;;;11.93;100.00;100238.13;5012116;28;20065;-83
2023/01/13 04:49:19;;;;;;;2.67;1.27;;;;;;;11.87;100.00;100231.94;5005046;28;20050;-86
2023/01/13 04:51:48;;;;;;;2.33;1.08;;;;;;;11.86;100.00;100228.47;5013297;28;20080;-86
2023/01/13 04:54:18;;;;;;;1.27;0.80;;;;;;;11.82;100.00;100230.97;5011863;28;20133;-84
2023/01/13 04:56:47;;;;;;;4.88;0.90;;;;;;;11.78;100.00;100235.25;5006780;28;20523;-84
2023/01/13 04:59:15;;;;;;;1.35;0.90;;;;;;;11.78;100.00;100244.75;5008745;28;20112;-89
2023/01/13 05:01:44;;;;;;;2.72;1.10;;;;;;;11.77;100.00;100237.81;5015566;28;20534;-80
2023/01/13 05:04:14;;;;;;;1.70;0.70;;;;;;;11.76;100.00;100239.53;5012755;28;20042;-86
2023/01/13 05:06:42;;;;;;;2.17;1.08;;;;;;;11.78;100.00;100240.44;5010862;28;20054;-85
2023/01/13 05:09:12;;;;;;;1.90;1.00;;;;;;;11.74;100.00;100228.28;5016105;28;20045;-85
2023/01/13 05:17:18;;;;;;;1.33;0.70;;;;;;;11.78;100.00;100232.66;5010731;28;20116;-77
2023/01/13 05:19:47;;;;;;;2.88;1.05;;;;;;;11.80;100.00;100224.94;5008829;28;20069;-79
2023/01/13 05:27:48;;;;;;;1.20;1.00;;;;;;;11.82;100.00;100237.06;4999924;28;20096;-85
2023/01/13 05:30:18;;;;;;;4.75;2.35;;;;;;;11.81;100.00;100243.06;5008185;28;20120;-81
2023/01/13 05:32:46;;;;;;;3.50;2.10;;;;;;;11.79;100.00;100242.19;5008204;28;20069;-79
2023/01/13 05:35:16;;;;;;;3.05;1.60;;;;;;;11.74;100.00;100226.53;5009655;28;20081;-80
2023/01/13 05:37:45;;;;;;;1.90;1.40;;;;;;;11.70;100.00;100236.84;5008035;28;20096;-82
2023/01/13 05:43:23;;;;;;;4.13;2.35;;;;;;;11.70;100.00;100248.09;5010692;28;20119;-85
2023/01/13 05:46:00;;;;;;;3.60;1.80;;;;;;;11.72;100.00;100241.19;5006735;28;20500;-83
2023/01/13 05:48:30;;;;;;;3.20;1.85;;;;;;;11.72;100.00;100242.94;5008045;28;20539;-82
2023/01/13 05:50:59;;;;;;;4.88;2.08;;;;;;;11.70;100.00;100234.25;5008606;28;20077;-83
2023/01/13 05:53:28;;;;;;;3.03;1.73;;;;;;;11.72;100.00;100235.16;5010490;28;20069;-82
2023/01/13 05:55:57;;;;;;;4.78;2.42;;;;;;;11.71;100.00;100243.78;5010476;28;20058;-86
2023/01/13 05:58:28;;;;;;;6.13;2.50;;;;;;;11.69;100.00;100240.28;5005541;28;20057;-83
2023/01/13 06:01:01;;;;;;;5.55;2.20;;;;;;;11.69;100.00;100232.53;5008471;28;20054;-83
2023/01/13 06:03:30;;;;;;;6.95;2.45;;;;;;;11.69;100.00;100235.13;5012282;28;20708;-83
2023/01/13 06:06:00;;;;;;;3.95;2.58;;;;;;;11.67;100.00;100236.81;5009475;28;20116;-80
2023/01/13 06:08:29;;;;;;;5.38;2.67;;;;;;;11.65;100.00;100223.81;5007970;28;20082;-81
2023/01/13 06:10:58;;;;;;;5.40;2.13;;;;;;;11.66;100.00;100224.66;5013091;28;20050;-84
2023/01/13 06:13:29;;;;;;;3.75;2.05;;;;;;;11.64;100.00;100231.56;5012214;28;20151;-84
2023/01/13 06:15:58;;;;;;;3.13;2.10;;;;;;;11.61;100.00;100232.38;5015070;28;20050;-83
2023/01/13 06:18:28;;;;;;;2.95;2.08;;;;;;;11.59;100.00;100235.78;5010882;28;20053;-85
2023/01/13 06:21:04;;;;;;;3.63;2.20;;;;;;;11.57;100.00;100238.38;5009101;28;20504;-85
2023/01/13 06:23:34;;;;;;;3.25;1.88;;;;;;;11.52;100.00;100233.13;5005804;28;20060;-84
2023/01/13 06:26:09;;;;;;;3.13;1.98;;;;;;;11.52;100.00;100233.13;5009225;28;20537;-86
2023/01/13 06:28:39;;;;;;;3.47;2.17;;;;;;;11.51;100.00;100218.41;5011171;28;20127;-86
2023/01/13 06:31:12;;;;;;;3.63;1.95;;;;;;;11.49;100.00;100222.69;5010545;28;20096;-85
2023/01/13 06:33:44;;;;;;;4.35;1.95;;;;;;;11.47;100.00;100231.28;5007565;28;20187;-86
2023/01/13 06:36:17;;;;;;;5.15;2.05;;;;;;;11.44;100.00;100208.78;5011320;28;20523;-85
2023/01/13 06:38:49;;;;;;;3.28;1.90;;;;;;;11.40;100.00;100206.09;5007808;28;20061;-82
2023/01/13 06:43:13;;;;;;;3.95;1.60;;;;;;;11.37;100.00;100217.28;5006675;28;20037;-82
2023/01/13 06:44:07;;;;;;;3.05;1.52;;;;;;;11.36;100.00;100205.19;5009696;28;20046;-80
2023/01/13 06:46:36;;;;;;;2.13;1.50;;;;;;;11.36;100.00;100209.47;4998972;28;20042;-79
2023/01/13 06:49:05;;;;;;;1.38;1.02;;;;;;;11.34;100.00;100206.88;5006150;28;20522;-79
2023/01/13 06:51:34;;;;;;;2.30;1.10;;;;;;;11.31;100.00;100217.19;5009174;28;20085;-77
2023/01/13 06:54:03;;;;;;;2.53;1.38;;;;;;;11.29;100.00;100209.41;5008289;28;20561;-78
2023/01/13 06:56:31;;;;;;;1.85;1.20;;;;;;;11.29;100.00;100193.84;5002623;28;20137;-79
2023/01/13 06:59:00;;;;;;;4.85;1.88;;;;;;;11.28;100.00;100188.63;5005673;28;20053;-79
2023/01/13 07:01:30;;;;;;;3.05;1.55;;;;;;;11.28;100.00;100196.41;5007476;28;20046;-79
2023/01/13 07:03:58;;;;;;;2.25;1.40;;;;;;;11.29;100.00;100187.78;5007502;28;20707;-78
2023/01/13 07:06:27;;;;;;;6.07;1.42;;;;;;;11.26;100.00;100192.91;5006707;28;20068;-78
2023/01/13 07:08:56;;;;;;;2.55;1.48;;;;;;;11.26;100.00;100187.75;5008831;28;20050;-78
2023/01/13 07:11:25;;;;;;;2.95;1.40;;;;;;;11.26;100.00;100183.41;5007592;28;20057;-80
2023/01/13 07:16:43;;;;;;;5.43;1.27;;;;;;;11.26;100.00;100192.91;5005883;28;20148;-79
2023/01/13 07:19:11;;;;;;;1.73;1.10;;;;;;;11.26;100.00;100193.78;5006741;28;20140;-79
2023/01/13 07:21:40;;;;;;;2.15;1.20;;;;;;;11.27;100.00;100199.81;5001878;28;20417;-79
2023/01/13 07:24:09;;;;;;;4.50;1.80;;;;;;;11.27;100.00;100179.09;5006028;28;20070;-79
2023/01/13 07:26:37;;;;;;;3.75;1.77;;;;;;;11.24;100.00;100176.47;5006567;28;20049;-79
2023/01/13 07:29:06;;;;;;;3.13;1.30;;;;;;;11.24;100.00;100187.69;5004461;28;20042;-79
2023/01/13 07:31:35;;;;;;;2.83;1.45;;;;;;;11.22;100.00;100197.16;5006198;28;20065;-79
2023/01/13 07:34:05;;;;;;;3.05;1.58;;;;;;;11.22;100.00;100191.13;5005338;28;20046;-78
2023/01/13 07:36:33;;;;;;;2.75;1.55;;;;;;;11.19;100.00;100173.81;5006593;28;20061;-78
2023/01/13 07:39:02;;;;;;;3.15;1.58;;;;;;;11.20;100.00;100187.63;5001198;28;20041;-79
2023/01/13 07:44:16;;;;;;;2.92;1.70;;;;;;;11.15;100.00;100190.13;5006350;28;20130;-79
2023/01/13 07:46:45;;;;;;;3.75;1.52;;;;;;;11.14;100.00;100187.53;4997966;28;20077;-80
2023/01/13 07:49:15;;;;;;;2.53;1.27;;;;;;;11.14;100.00;100187.53;5007909;28;20071;-80
2023/01/13 07:51:44;;;;;;;3.75;1.50;;;;;;;11.13;100.00;100196.13;5005108;28;20045;-80
2023/01/13 07:54:12;;;;;;;2.38;1.58;;;;;;;11.11;100.00;100189.22;5005471;28;20257;-79
2023/01/13 07:56:41;;;;;;;3.33;1.67;;;;;;;11.11;100.00;100193.53;5005949;28;20050;-80
2023/01/13 07:59:09;;;;;;;3.72;1.48;;;;;;;11.10;100.00;100197.81;5006116;28;20070;-79
2023/01/13 08:01:38;;;;;;;2.20;1.45;;;;;;;11.10;100.00;100197.81;5005764;28;20050;-80
2023/01/13 08:04:06;;;;;;;2.40;1.40;;;;;;;11.10;100.00;100208.16;5005900;28;20050;-79
2023/01/13 08:06:37;;;;;;;1.55;1.15;;;;;;;11.12;100.00;100205.63;5005985;28;20068;-79
2023/01/13 08:09:05;;;;;;;2.75;1.23;;;;;;;11.14;100.00;100223.78;5008014;28;20783;-79
2023/01/13 08:11:34;;;;;;;3.55;1.45;;;;;;;11.13;100.00;100222.03;5011170;28;20046;-79
2023/01/13 08:14:02;;;;;;;4.22;1.48;;;;;;;11.12;100.00;100218.56;5006949;28;20099;-79
2023/01/13 08:16:34;;;;;;;2.50;1.30;;;;;;;11.14;100.00;100254.84;5008993;28;20077;-78
2023/01/13 08:19:03;;;;;;;4.68;1.67;;;;;;;11.13;100.00;100247.91;5002661;28;20680;-78
2023/01/13 08:21:31;;;;;;;7.60;1.60;;;;;;;11.13;100.00;100227.19;5007002;28;20050;-78
2023/01/13 08:24:02;;;;;;;2.55;1.48;;;;;;;11.05;100.00;100219.31;5005588;28;20069;-78
2023/01/13 08:26:30;;;;;;;2.78;1.30;;;;;;;11.03;100.00;100245.16;5004775;28;20050;-78
2023/01/13 08:28:59;;;;;;;3.42;1.52;;;;;;;11.03;100.00;100216.66;5008723;28;20053;-80
2023/01/13 08:31:27;;;;;;;1.75;1.30;;;;;;;11.02;100.00;100220.13;5013633;28;20054;-77
2023/01/13 08:33:56;;;;;;;2.17;1.27;;;;;;;10.99;100.00;100204.50;5011096;28;20057;-80
2023/01/13 08:36:25;;;;;;;1.80;1.27;;;;;;;11.02;100.00;100193.38;5011096;28;20050;-79
2023/01/13 08:38:54;;;;;;;1.92;1.33;;;;;;;11.01;100.00;100176.94;5009972;28;20045;-78
2023/01/13 08:44:07;;;;;;;4.47;1.45;;;;;;;11.00;100.00;100172.63;5005503;28;20125;-78
2023/01/13 08:46:36;;;;;;;2.30;1.42;;;;;;;11.00;100.00;100174.34;5010003;28;20042;-79
2023/01/13 08:49:05;;;;;;;1.60;1.15;;;;;;;10.98;100.00;100182.06;5010161;28;20050;-78
2023/01/13 08:51:34;;;;;;;4.22;1.35;;;;;;;10.94;100.00;100169.03;5006967;28;20050;-78
2023/01/13 08:54:03;;;;;;;2.72;1.40;;;;;;;10.91;100.00;100187.97;5004850;28;20050;-78
2023/01/13 08:56:33;;;;;;;1.77;1.40;;;;;;;10.87;100.00;100183.56;5009601;28;20046;-79
2023/01/13 08:59:02;;;;;;;5.60;1.40;;;;;;;10.89;100.00;100181.91;5013383;28;20046;-78
2023/01/13 09:01:31;;;;;;;2.97;1.65;;;;;;;10.92;100.00;100187.13;5000873;28;20518;-79
2023/01/13 09:04:00;;;;;;;2.53;1.30;;;;;;;10.89;100.00;100197.44;5008389;28;20096;-79
2023/01/13 09:06:28;;;;;;;2.35;1.10;;;;;;;10.89;100.00;100193.09;5008964;28;20050;-79
2023/01/13 09:08:57;;;;;;;2.38;1.20;;;;;;;10.91;100.00;100200.91;5013166;28;20038;-79
2023/01/13 09:14:20;;;;;;;2.53;1.30;;;;;;;10.86;100.00;100207.72;5009635;28;20196;-79
2023/01/13 09:16:49;;;;;;;2.33;1.10;;;;;;;10.89;100.00;100223.31;5008548;28;20505;-80
2023/01/13 09:19:17;;;;;;;3.08;1.33;;;;;;;10.92;100.00;100212.13;5009239;28;20057;-78
2023/01/13 09:21:46;;;;;;;3.17;1.20;;;;;;;10.93;100.00;100209.59;5010262;28;20046;-78
2023/01/13 09:24:15;;;;;;;2.97;1.40;;;;;;;10.93;100.00;100208.72;5006455;28;20058;-79
2023/01/13 09:26:43;;;;;;;5.63;1.15;;;;;;;10.89;100.00;100208.63;5009547;28;20090;-79
2023/01/13 09:29:12;;;;;;;2.28;1.20;;;;;;;10.89;100.00;100202.59;5008152;28;20050;-79
2023/01/13 09:31:56;;;;;;;2.28;1.08;;;;;;;10.91;100.00;100193.16;5012761;28;20053;-78
2023/01/13 09:37:11;;;;;;;2.45;1.30;;;;;;;10.99;100.00;100178.63;5008538;28;20053;-79
2023/01/13 09:39:40;;;;;;;3.13;1.20;;;;;;;11.02;100.00;100177.84;5009675;28;20054;-79
2023/01/13 09:45:07;;;;;;;2.45;1.40;;;;;;;10.96;100.00;100182.88;5009045;28;20072;-79
2023/01/13 09:47:44;;;;;;;2.57;1.40;;;;;;;10.96;100.00;100181.16;5007948;28;20053;-78
2023/01/13 09:50:25;;;;;;;2.60;1.20;;;;;;;10.97;100.00;100185.50;5005558;28;20519;-78
2023/01/13 09:52:54;;;;;;;1.42;1.00;;;;;;;10.98;100.00;100188.97;5010038;28;21221;-79
2023/01/13 09:55:31;;;;;;;2.17;1.25;;;;;;;11.00;100.00;100195.03;5012252;28;20555;-78
2023/01/13 09:58:01;;;;;;;2.53;1.00;;;;;;;11.01;100.00;100192.47;5010453;28;20046;-78
2023/01/13 10:00:36;;;;;;;2.35;1.65;;;;;;;11.01;100.00;100194.19;5011580;28;20070;-79
2023/01/13 10:03:21;;;;;;;2.38;1.30;;;;;;;10.93;100.00;100199.22;5010235;28;20065;-79
2023/01/13 10:05:56;;;;;;;1.75;1.15;;;;;;;10.92;100.00;100196.59;5007229;28;20656;-79
2023/01/13 10:08:28;;;;;;;4.10;0.88;;;;;;;10.89;100.00;100207.78;5008058;28;20539;-79
2023/01/13 10:10:59;;;;;;;2.70;1.63;;;;;;;10.87;100.00;100215.50;5006763;28;20046;-79
2023/01/13 10:13:28;;;;;;;2.25;1.30;;;;;;;10.88;100.00;100224.13;5009352;28;20622;-79
2023/01/13 10:16:17;;;;;;;4.45;1.40;;;;;;;10.84;100.00;100240.47;5010792;28;20060;-80
2023/01/13 10:19:03;;;;;;;3.22;1.27;;;;;;;10.81;100.00;100240.38;5004755;28;20053;-80
2023/01/13 10:22:14;;;;;;;2.80;1.45;;;;;;;10.81;100.00;100246.47;5007783;28;20053;-80
2023/01/13 10:25:02;;;;;;;1.52;1.02;;;;;;;10.63;100.00;100259.88;5004977;28;20049;-80
2023/01/13 10:27:34;;;;;;;1.65;1.25;;;;;;;10.71;100.00;100269.50;5003294;28;20054;-80
2023/01/13 10:30:13;;;;;;;2.92;1.30;;;;;;;10.70;100.00;100279.00;5011239;28;20124;-80
2023/01/13 10:32:46;;;;;;;2.38;1.35;;;;;;;10.70;100.00;100279.00;5006713;28;20092;-79
2023/01/13 10:35:17;;;;;;;2.30;1.38;;;;;;;10.73;100.00;100278.19;5006657;28;20077;-79
2023/01/13 10:37:57;;;;;;;2.05;1.83;;;;;;;10.72;100.00;100287.66;5006569;28;20054;-80
2023/01/13 10:40:26;;;;;;;3.30;1.35;;;;;;;10.72;100.00;100292.84;5006492;28;20100;-79
2023/01/13 10:43:06;;;;;;;2.47;1.13;;;;;;;10.71;100.00;100285.03;5008291;28;20052;-79
2023/01/13 10:45:34;;;;;;;2.28;1.45;;;;;;;10.72;100.00;100274.72;5006043;28;20057;-79
2023/01/13 10:48:14;;;;;;;4.53;1.75;;;;;;;10.71;100.00;100265.22;5006810;28;20054;-80
2023/01/13 10:50:47;;;;;;;3.03;1.35;;;;;;;10.72;100.00;100268.66;5007474;28;21000;-78
2023/01/13 10:53:23;;;;;;;4.97;1.38;;;;;;;10.72;100.00;100272.16;5007038;28;20055;-78
2023/01/13 10:56:02;;;;;;;2.92;1.50;;;;;;;10.75;100.00;100276.50;5008338;28;20046;-78
2023/01/13 10:58:31;;;;;;;1.77;1.25;;;;;;;10.74;100.00;100275.59;5006114;28;20054;-78
2023/01/13 11:01:04;;;;;;;2.80;1.55;;;;;;;10.75;100.00;100260.97;5006840;28;20050;-80
2023/01/13 11:03:40;;;;;;;2.20;1.50;;;;;;;10.73;100.00;100288.53;5010388;28;20714;-80
2023/01/13 11:06:19;;;;;;;3.10;1.48;;;;;;;10.72;100.00;100243.69;5007783;28;20046;-79
2023/01/13 11:08:50;;;;;;;5.70;1.35;;;;;;;10.72;100.00;100271.25;5007982;28;20046;-81
2023/01/13 11:11:41;;;;;;;3.35;1.70;;;;;;;10.71;100.00;100274.69;5004953;28;20046;-80
2023/01/13 11:14:38;;;;;;;2.08;1.40;;;;;;;10.66;100.00;100261.66;5006143;28;20108;-79
2023/01/13 11:17:28;;;;;;;2.58;1.50;;;;;;;10.62;100.00;100271.06;5002648;28;20057;-79
2023/01/13 11:20:04;;;;;;;3.75;1.85;;;;;;;10.63;100.00;100271.94;5003979;28;20053;-78
2023/01/13 11:22:40;;;;;;;5.80;2.30;;;;;;;10.63;100.00;100256.44;5005089;28;20093;-78
2023/01/13 11:25:14;;;;;;;4.10;1.98;;;;;;;10.64;100.00;100256.44;5007580;28;20046;-80
2023/01/13 11:27:48;;;;;;;10.30;2.50;;;;;;;10.68;100.00;100244.44;5005640;28;20517;-79
2023/01/13 11:30:30;;;;;;;2.72;1.65;;;;;;;10.67;100.00;100232.34;5005973;28;20046;-79
2023/01/13 11:33:16;;;;;;;4.27;2.27;;;;;;;10.69;100.00;100216.00;5009525;28;20721;-79
2023/01/13 11:35:49;;;;;;;5.00;1.95;;;;;;;10.72;100.00;100227.25;5006204;28;20061;-79
2023/01/13 11:38:31;;;;;;;4.25;2.00;;;;;;;10.73;100.00;100234.19;5007312;28;20061;-78
2023/01/13 11:41:07;;;;;;;4.18;2.00;;;;;;;10.71;100.00;100234.16;5006893;28;20053;-78
2023/01/13 11:43:43;;;;;;;3.22;1.70;;;;;;;10.65;100.00;100232.31;5010372;28;20041;-79
2023/01/13 11:46:12;;;;;;;4.57;2.03;;;;;;;10.61;100.00;100222.75;5007205;28;20558;-79
2023/01/13 11:48:43;;;;;;;3.10;1.95;;;;;;;10.57;100.00;100230.41;5005498;28;20045;-80
2023/01/13 11:51:24;;;;;;;1.73;1.30;;;;;;;10.54;100.00;100225.19;5006929;28;20130;-80
2023/01/13 11:54:08;;;;;;;5.10;1.90;;;;;;;10.48;100.00;100225.91;5005482;28;20096;-80
2023/01/13 11:57:02;;;;;;;1.83;1.40;;;;;;;10.50;100.00;100224.25;5004360;28;20111;-79
2023/01/13 11:59:49;;;;;;;4.50;2.30;;;;;;;10.55;100.00;100230.38;5009563;28;20225;-80
2023/01/13 12:02:32;;;;;;;3.50;1.70;;;;;;;10.58;100.00;100227.88;5007589;28;20050;-79
2023/01/13 12:05:11;;;;;;;3.92;1.40;;;;;;;10.63;100.00;100220.22;5005132;28;20046;-78
2023/01/13 12:07:47;;;;;;;4.65;1.35;;;;;;;10.62;100.00;100211.53;5006431;28;20727;-78
2023/01/13 12:10:28;;;;;;;2.92;1.40;;;;;;;10.62;100.00;100214.13;5006535;28;20046;-78
2023/01/13 12:13:04;;;;;;;2.70;1.40;;;;;;;10.67;100.00;100212.53;5007621;28;20060;-78
2023/01/13 12:15:51;;;;;;;2.67;1.55;;;;;;;10.68;100.00;100213.41;5006171;28;20058;-79
2023/01/13 12:18:34;;;;;;;2.90;1.60;;;;;;;10.74;100.00;100197.13;5006078;28;20065;-78
2023/01/13 12:21:19;;;;;;;2.45;1.25;;;;;;;10.77;100.00;100207.53;5004887;28;20100;-78
2023/01/13 12:23:58;;;;;;;3.55;1.65;;;;;;;10.80;100.00;100207.59;5005701;28;20045;-79
2023/01/13 12:26:33;;;;;;;2.28;1.50;;;;;;;10.79;100.00;100216.19;5007280;28;20046;-78
2023/01/13 12:29:05;;;;;;;2.35;1.40;;;;;;;10.79;100.00;100211.00;5006420;28;20053;-78
2023/01/13 12:31:38;;;;;;;4.18;1.60;;;;;;;10.76;100.00;100216.13;5004019;28;20077;-80
2023/01/13 12:34:27;;;;;;;2.85;1.27;;;;;;;10.74;100.00;100189.34;5005615;28;20070;-79
2023/01/13 12:37:03;;;;;;;2.10;1.00;;;;;;;10.74;100.00;100208.31;5006813;28;20050;-79
2023/01/13 12:39:42;;;;;;;3.45;1.30;;;;;;;10.73;100.00;100190.22;5011703;28;21317;-78